Time;durP1;ratioP1;P1;durP2;ratioP2;P2;SDS_P1;SDS_P2;PMS_P1;PMS_P2;Temp;Humidity;BMP_temperature;BMP_pressure;BME280_temperature;BME280_humidity;BME280_pressure;Samples;Min_cycle;Max_cycle;Signal;HPM_P1;HPM_P2
2022/02/16 00:00:59;;;;;;;5.40;4.87;;;;;;;7.45;100.00;100363.53;5055803;28;20029;-35
2022/02/16 00:03:25;;;;;;;7.13;4.90;;;;;;;7.43;100.00;100353.03;5055454;28;20044;-35
2022/02/16 00:05:50;;;;;;;7.73;5.20;;;;;;;7.44;100.00;100338.50;5055898;28;20024;-34
2022/02/16 00:08:16;;;;;;;6.95;5.10;;;;;;;7.46;100.00;100324.84;5056327;28;20409;-35
2022/02/16 00:10:41;;;;;;;7.20;4.97;;;;;;;7.39;100.00;100310.63;5055667;28;20458;-35
2022/02/16 00:13:06;;;;;;;10.70;5.20;;;;;;;7.46;100.00;100320.28;5055809;28;20029;-34
2022/02/16 00:15:32;;;;;;;8.23;5.00;;;;;;;7.47;100.00;100321.94;5054616;28;20384;-34
2022/02/16 00:17:57;;;;;;;9.77;5.10;;;;;;;7.45;100.00;100321.31;5055943;28;20029;-39
2022/02/16 00:20:22;;;;;;;6.57;4.77;;;;;;;7.47;100.00;100315.75;5055084;28;20037;-35
2022/02/16 00:22:48;;;;;;;5.90;4.97;;;;;;;7.47;100.00;100324.63;5055612;28;20481;-34
2022/02/16 00:25:13;;;;;;;5.20;4.70;;;;;;;7.49;100.00;100317.16;5055512;28;20112;-35
2022/02/16 00:27:38;;;;;;;9.23;5.63;;;;;;;7.47;100.00;100304.97;5054914;28;20111;-35
2022/02/16 00:30:06;;;;;;;6.47;4.93;;;;;;;7.47;100.00;100311.19;5055579;28;20107;-35
2022/02/16 00:32:31;;;;;;;6.43;4.70;;;;;;;7.51;100.00;100306.16;5054807;28;20055;-35
2022/02/16 00:34:57;;;;;;;6.75;5.40;;;;;;;7.42;100.00;100288.69;5055712;28;20599;-35
2022/02/16 00:37:22;;;;;;;7.97;4.77;;;;;;;7.51;100.00;100303.47;5055064;28;20377;-36
2022/02/16 00:39:47;;;;;;;5.93;4.47;;;;;;;7.53;100.00;100298.69;5055825;28;20112;-36
2022/02/16 00:42:13;;;;;;;6.20;4.87;;;;;;;7.51;100.00;100290.00;5055014;28;20032;-36
2022/02/16 00:44:38;;;;;;;6.90;4.40;;;;;;;7.45;100.00;100283.66;5054946;28;20162;-36
2022/02/16 00:47:04;;;;;;;8.50;5.37;;;;;;;7.53;100.00;100287.13;5054907;28;20111;-36
2022/02/16 00:49:29;;;;;;;8.77;5.22;;;;;;;7.53;100.00;100284.44;5055107;28;20074;-35
2022/02/16 00:51:54;;;;;;;6.47;4.90;;;;;;;7.53;100.00;100281.72;5054457;28;20105;-35
2022/02/16 00:54:20;;;;;;;6.55;5.30;;;;;;;7.54;100.00;100272.59;5055509;28;20036;-35
2022/02/16 00:56:45;;;;;;;7.20;5.13;;;;;;;7.49;100.00;100271.41;5054555;28;20478;-36
2022/02/16 00:59:11;;;;;;;7.30;5.53;;;;;;;7.52;100.00;100275.53;5054675;28;20462;-35
2022/02/16 01:01:36;;;;;;;6.70;5.23;;;;;;;7.54;100.00;100264.53;5054327;28;20385;-35
2022/02/16 01:04:02;;;;;;;8.75;5.70;;;;;;;7.54;100.00;100256.47;5054462;28;20158;-35
2022/02/16 01:06:27;;;;;;;8.80;5.17;;;;;;;7.52;100.00;100245.13;5054892;28;20070;-35
2022/02/16 01:08:52;;;;;;;8.17;5.30;;;;;;;7.40;100.00;100227.03;5054960;28;20260;-35
2022/02/16 01:11:21;;;;;;;8.20;5.47;;;;;;;7.54;100.00;100240.31;5054497;28;20102;-35
2022/02/16 01:13:46;;;;;;;7.68;5.80;;;;;;;7.57;100.00;100250.66;5054250;28;20028;-35
2022/02/16 01:16:12;;;;;;;6.63;5.13;;;;;;;7.59;100.00;100253.91;5054637;28;20032;-34
2022/02/16 01:18:37;;;;;;;6.20;5.00;;;;;;;7.61;100.00;100257.19;5054810;28;20514;-34
2022/02/16 01:21:03;;;;;;;7.87;4.80;;;;;;;7.60;100.00;100244.78;5055087;28;20040;-35
2022/02/16 01:23:28;;;;;;;6.27;4.60;;;;;;;7.60;100.00;100240.22;5054322;28;20025;-35
2022/02/16 01:25:53;;;;;;;7.33;5.30;;;;;;;7.60;100.00;100234.84;5054488;28;20086;-35
2022/02/16 01:28:19;;;;;;;7.93;5.80;;;;;;;7.62;100.00;100234.66;5053792;28;20072;-35
2022/02/16 01:30:44;;;;;;;7.77;5.50;;;;;;;7.62;100.00;100224.69;5053927;28;20059;-35
2022/02/16 01:33:09;;;;;;;9.20;5.13;;;;;;;7.62;100.00;100221.19;5053736;28;20040;-35
2022/02/16 01:35:35;;;;;;;7.13;5.60;;;;;;;7.61;100.00;100215.00;5054323;28;20603;-35
2022/02/16 01:38:01;;;;;;;6.80;5.67;;;;;;;7.63;100.00;100206.69;5053657;28;20104;-35
2022/02/16 01:40:27;;;;;;;9.95;5.40;;;;;;;7.58;100.00;100195.78;5053574;28;20025;-34
2022/02/16 01:42:52;;;;;;;10.50;5.70;;;;;;;7.63;100.00;100206.69;5054404;28;20033;-34
2022/02/16 01:45:27;;;;;;;7.10;5.07;;;;;;;7.56;100.00;100192.47;5053736;28;20028;-34
2022/02/16 01:47:53;;;;;;;7.15;5.25;;;;;;;7.65;100.00;100210.78;5053672;28;20039;-34
2022/02/16 01:50:19;;;;;;;6.22;4.90;;;;;;;7.60;100.00;100201.75;5053646;28;20033;-35
2022/02/16 01:52:45;;;;;;;6.53;5.07;;;;;;;7.64;100.00;100206.44;5054307;28;20033;-35
2022/02/16 01:55:11;;;;;;;6.53;4.83;;;;;;;7.60;100.00;100190.97;5053855;28;20424;-34
2022/02/16 01:57:38;;;;;;;6.63;5.13;;;;;;;7.63;100.00;100196.72;5053949;28;20355;-34
2022/02/16 02:00:05;;;;;;;5.40;4.82;;;;;;;7.65;100.00;100188.41;5053391;28;20025;-35
2022/02/16 02:02:31;;;;;;;4.75;4.20;;;;;;;7.65;100.00;100174.97;5053120;28;20469;-35
2022/02/16 02:04:56;;;;;;;6.30;4.37;;;;;;;7.66;100.00;100172.06;5053686;28;20066;-35
2022/02/16 02:07:21;;;;;;;5.60;4.47;;;;;;;7.67;100.00;100164.81;5053293;28;20377;-35
2022/02/16 02:09:48;;;;;;;7.00;4.83;;;;;;;7.66;100.00;100157.75;5053526;28;20075;-35
2022/02/16 02:12:13;;;;;;;5.80;4.70;;;;;;;7.61;100.00;100147.72;5053198;28;20436;-35
2022/02/16 02:14:39;;;;;;;6.10;4.45;;;;;;;7.66;100.00;100152.38;5053230;28;20033;-35
2022/02/16 02:17:04;;;;;;;5.33;4.70;;;;;;;7.65;100.00;100138.13;5053943;28;20033;-35
2022/02/16 02:19:29;;;;;;;6.73;4.87;;;;;;;7.64;100.00;100135.66;5053694;28;20374;-35
2022/02/16 02:21:55;;;;;;;5.90;4.40;;;;;;;7.66;100.00;100126.31;5053150;28;20040;-35
2022/02/16 02:24:20;;;;;;;7.03;5.40;;;;;;;7.66;100.00;100123.63;5053344;28;20140;-35
2022/02/16 02:26:45;;;;;;;4.77;4.07;;;;;;;7.60;100.00;100102.19;5053070;28;20108;-35
2022/02/16 02:29:11;;;;;;;6.07;4.80;;;;;;;7.68;100.00;100115.31;5053463;28;20462;-35
2022/02/16 02:31:37;;;;;;;5.83;4.10;;;;;;;7.68;100.00;100112.63;5053369;28;20033;-35
2022/02/16 02:34:04;;;;;;;4.68;4.20;;;;;;;7.66;100.00;100115.56;5052813;28;20036;-35
2022/02/16 02:36:29;;;;;;;;;;;;;;;7.70;100.00;100113.22;5053525;28;20029;-35
2022/02/16 02:38:55;;;;;;;5.38;3.83;;;;;;;7.70;100.00;100111.34;5053326;28;19919;-35
2022/02/16 02:41:21;;;;;;;5.80;4.00;;;;;;;7.69;100.00;100104.31;5053025;28;20041;-35
2022/02/16 02:43:47;;;;;;;4.18;3.28;;;;;;;7.73;100.00;100102.00;5055883;28;20025;-35
2022/02/16 02:46:13;;;;;;;3.70;3.28;;;;;;;7.64;100.00;100071.91;5056738;28;20516;-35
2022/02/16 02:48:39;;;;;;;5.15;3.53;;;;;;;7.72;100.00;100078.84;5057358;28;20351;-35
2022/02/16 02:51:04;;;;;;;5.17;3.50;;;;;;;7.72;100.00;100076.97;5056012;28;20079;-35
2022/02/16 02:53:30;;;;;;;3.53;2.77;;;;;;;7.73;100.00;100081.28;5057313;28;20274;-35
2022/02/16 02:55:55;;;;;;;3.37;2.87;;;;;;;7.74;100.00;100088.28;5057426;28;20032;-35
2022/02/16 02:58:21;;;;;;;3.30;2.58;;;;;;;7.73;100.00;100083.16;5057447;28;20048;-35
2022/02/16 03:00:46;;;;;;;5.22;2.70;;;;;;;7.74;100.00;100087.47;5056667;28;20212;-35
2022/02/16 03:03:12;;;;;;;2.90;2.53;;;;;;;7.66;100.00;100074.34;5057039;28;20037;-35
2022/02/16 03:05:37;;;;;;;5.50;2.77;;;;;;;7.76;100.00;100082.72;5057365;28;20036;-35
2022/02/16 03:08:04;;;;;;;3.00;2.50;;;;;;;7.70;100.00;100065.59;5057265;28;20430;-35
2022/02/16 03:10:29;;;;;;;3.92;2.67;;;;;;;7.70;100.00;100070.97;5056473;28;20845;-35
2022/02/16 03:12:55;;;;;;;5.53;2.73;;;;;;;7.77;100.00;100072.75;5056771;28;20120;-35
2022/02/16 03:15:20;;;;;;;3.15;2.20;;;;;;;7.64;100.00;100050.38;5056731;28;20045;-35
2022/02/16 03:17:46;;;;;;;3.15;2.60;;;;;;;7.66;100.00;100050.13;5056872;28;20029;-35
2022/02/16 03:20:11;;;;;;;2.73;2.10;;;;;;;7.78;100.00;100067.13;5056521;28;20029;-35
2022/02/16 03:22:37;;;;;;;2.73;2.10;;;;;;;7.79;100.00;100060.69;5056451;28;20333;-35
2022/02/16 03:25:04;;;;;;;2.85;1.95;;;;;;;7.73;100.00;100050.88;5056475;28;20032;-35
2022/02/16 03:27:30;;;;;;;2.05;1.85;;;;;;;7.80;100.00;100059.63;5055951;28;20055;-34
2022/02/16 03:29:55;;;;;;;2.50;2.30;;;;;;;7.77;100.00;100051.22;5056639;28;20036;-35
2022/02/16 03:32:21;;;;;;;3.05;2.13;;;;;;;7.77;100.00;100057.44;5056230;28;20024;-35
2022/02/16 03:34:46;;;;;;;2.85;2.20;;;;;;;7.78;100.00;100058.25;5056549;28;20202;-35
2022/02/16 03:37:12;;;;;;;2.83;2.20;;;;;;;7.78;100.00;100055.56;5056716;28;20044;-35
2022/02/16 03:39:38;;;;;;;4.45;3.33;;;;;;;7.78;100.00;100045.59;5056732;28;20032;-35
2022/02/16 03:42:04;;;;;;;3.53;2.50;;;;;;;7.79;100.00;100039.16;5056002;28;20033;-35
2022/02/16 03:44:29;;;;;;;3.03;2.72;;;;;;;7.69;100.00;100015.50;5056060;28;20025;-35
2022/02/16 03:46:55;;;;;;;2.57;2.37;;;;;;;7.71;100.00;100012.56;5056342;28;20037;-35
2022/02/16 03:49:24;;;;;;;3.95;3.00;;;;;;;7.78;100.00;100016.00;5056385;28;20028;-35
2022/02/16 03:51:50;;;;;;;3.05;2.28;;;;;;;7.68;100.00;99994.22;5055783;28;20087;-35
2022/02/16 03:54:16;;;;;;;4.18;3.03;;;;;;;7.74;100.00;100006.75;5055482;28;20108;-35
2022/02/16 03:56:42;;;;;;;5.18;3.58;;;;;;;7.75;100.00;100008.38;5054793;28;20098;-35
2022/02/16 03:59:08;;;;;;;4.00;3.47;;;;;;;7.69;100.00;99991.28;5055882;28;20061;-35
2022/02/16 04:01:34;;;;;;;4.70;3.60;;;;;;;7.74;100.00;99995.97;5055788;28;20064;-35
2022/02/16 04:03:59;;;;;;;;;;;;;;;7.76;100.00;99988.50;5056187;28;20021;-35
2022/02/16 04:06:24;;;;;;;4.97;3.75;;;;;;;7.74;100.00;99979.81;5056330;28;19919;-36
2022/02/16 04:08:50;;;;;;;6.20;4.37;;;;;;;7.65;100.00;99968.59;5055854;28;20057;-35
2022/02/16 04:11:17;;;;;;;4.73;4.03;;;;;;;7.71;100.00;99964.97;5055578;28;20105;-35
2022/02/16 04:13:43;;;;;;;5.35;4.07;;;;;;;7.70;100.00;99959.81;5055674;28;20021;-35
2022/02/16 04:16:08;;;;;;;4.40;3.85;;;;;;;7.70;100.00;99946.34;5056021;28;20036;-36
2022/02/16 04:18:33;;;;;;;5.05;3.95;;;;;;;7.73;100.00;99935.94;5055432;28;20381;-35
2022/02/16 04:20:59;;;;;;;10.03;4.00;;;;;;;7.68;100.00;99918.88;5055194;28;20163;-35
2022/02/16 04:23:24;;;;;;;5.73;3.40;;;;;;;7.67;100.00;99906.47;5055969;28;20064;-35
2022/02/16 04:25:49;;;;;;;5.07;3.73;;;;;;;7.76;100.00;99915.84;5055906;28;20110;-36
2022/02/16 04:28:15;;;;;;;4.97;3.90;;;;;;;7.75;100.00;99912.31;5055349;28;20032;-35
2022/02/16 04:30:40;;;;;;;4.13;3.63;;;;;;;7.77;100.00;99912.09;5055462;28;20553;-35
2022/02/16 04:33:06;;;;;;;3.75;3.45;;;;;;;7.79;100.00;99914.53;5055175;28;20021;-35
2022/02/16 04:35:32;;;;;;;3.97;3.42;;;;;;;7.73;100.00;99894.78;5055508;28;20029;-35
2022/02/16 04:37:57;;;;;;;4.40;3.60;;;;;;;7.83;100.00;99899.56;5054800;28;20467;-35
2022/02/16 04:40:23;;;;;;;5.18;3.85;;;;;;;7.83;100.00;99900.38;5055122;28;20028;-35
2022/02/16 04:42:48;;;;;;;4.65;3.92;;;;;;;7.82;100.00;99893.34;5055277;28;20040;-35
2022/02/16 04:45:14;;;;;;;4.00;3.60;;;;;;;7.84;100.00;99879.66;5055198;28;20102;-36
2022/02/16 04:47:39;;;;;;;3.77;3.30;;;;;;;7.83;100.00;99862.69;5054879;28;20465;-36
2022/02/16 04:50:07;;;;;;;4.70;3.70;;;;;;;7.83;100.00;99862.69;5055407;28;20264;-36
2022/02/16 04:52:35;;;;;;;5.05;2.85;;;;;;;7.86;100.00;99862.22;5055286;28;20063;-36
2022/02/16 04:55:03;;;;;;;3.20;2.90;;;;;;;7.88;100.00;99859.28;5055096;28;20485;-36
2022/02/16 04:57:29;;;;;;;3.47;3.10;;;;;;;7.89;100.00;99859.03;5055010;28;20052;-36
2022/02/16 04:59:58;;;;;;;2.90;2.60;;;;;;;7.88;100.00;99841.25;5054505;28;20504;-35
2022/02/16 05:02:24;;;;;;;3.05;2.83;;;;;;;7.82;100.00;99836.84;5054650;28;20451;-36
2022/02/16 05:04:49;;;;;;;2.83;2.60;;;;;;;7.92;100.00;99853.19;5054692;28;20112;-35
2022/02/16 05:07:14;;;;;;;2.77;2.47;;;;;;;7.78;100.00;99806.06;5054033;28;20454;-35
2022/02/16 05:09:40;;;;;;;2.43;2.20;;;;;;;7.93;100.00;99822.53;5054902;28;20078;-35
2022/02/16 05:12:05;;;;;;;2.60;2.07;;;;;;;7.89;100.00;99807.09;5054507;28;20119;-35
2022/02/16 05:14:31;;;;;;;2.67;1.90;;;;;;;7.98;100.00;99809.16;5054417;28;20437;-35
2022/02/16 05:16:56;;;;;;;3.03;2.77;;;;;;;7.97;100.00;99802.16;5054193;28;20161;-35
2022/02/16 05:19:21;;;;;;;2.10;1.93;;;;;;;7.96;100.00;99807.78;5054153;28;20033;-35
2022/02/16 05:21:47;;;;;;;2.83;2.00;;;;;;;7.98;100.00;99795.69;5054451;28;20065;-36
2022/02/16 05:24:12;;;;;;;2.57;2.30;;;;;;;7.97;100.00;99780.63;5054479;28;20017;-36
2022/02/16 05:26:38;;;;;;;2.00;1.80;;;;;;;7.94;100.00;99775.69;5053768;28;20021;-35
2022/02/16 05:29:04;;;;;;;2.55;2.30;;;;;;;7.97;100.00;99772.53;5054371;28;20377;-35
2022/02/16 05:31:29;;;;;;;2.75;2.03;;;;;;;7.97;100.00;99772.53;5054559;28;20138;-35
2022/02/16 05:33:54;;;;;;;2.33;1.70;;;;;;;7.98;100.00;99766.09;5054138;28;20029;-35
2022/02/16 05:36:19;;;;;;;2.27;2.07;;;;;;;7.97;100.00;99760.97;5053789;28;20039;-35
2022/02/16 05:38:45;;;;;;;2.33;2.13;;;;;;;7.98;100.00;99759.91;5054414;28;20086;-35
2022/02/16 05:41:10;;;;;;;2.47;2.10;;;;;;;7.98;100.00;99751.81;5053894;28;20052;-35
2022/02/16 05:43:36;;;;;;;2.30;2.10;;;;;;;7.97;100.00;99737.53;5052598;28;20287;-34
2022/02/16 05:46:01;;;;;;;1.97;1.87;;;;;;;8.00;100.00;99734.38;5053668;28;20421;-35
2022/02/16 05:48:26;;;;;;;2.33;1.87;;;;;;;8.00;100.00;99726.31;5053331;28;20073;-35
2022/02/16 05:50:52;;;;;;;2.53;2.30;;;;;;;8.02;100.00;99738.69;5052657;28;20114;-35
2022/02/16 05:53:17;;;;;;;2.43;2.23;;;;;;;7.98;100.00;99717.63;5053285;28;20029;-35
2022/02/16 05:55:43;;;;;;;2.63;2.20;;;;;;;8.02;100.00;99707.22;5054129;28;20025;-35
2022/02/16 05:58:08;;;;;;;2.50;2.00;;;;;;;8.04;100.00;99704.25;5052019;28;20716;-35
2022/02/16 06:00:34;;;;;;;2.20;2.00;;;;;;;8.05;100.00;99687.03;5054146;28;20025;-35
2022/02/16 06:02:59;;;;;;;2.40;2.20;;;;;;;8.06;100.00;99694.09;5053650;28;20025;-35
2022/02/16 06:05:25;;;;;;;2.20;2.00;;;;;;;8.08;100.00;99695.47;5053736;28;20032;-35
2022/02/16 06:07:50;;;;;;;2.58;1.80;;;;;;;8.06;100.00;99678.75;5053187;28;20028;-35
2022/02/16 06:10:15;;;;;;;2.13;1.87;;;;;;;8.08;100.00;99681.19;5053119;28;20079;-35
2022/02/16 06:12:41;;;;;;;2.13;1.93;;;;;;;8.11;100.00;99676.13;5053233;28;20036;-35
2022/02/16 06:15:07;;;;;;;1.92;1.73;;;;;;;8.07;100.00;99655.31;5053513;28;20024;-35
2022/02/16 06:17:32;;;;;;;2.15;1.85;;;;;;;8.16;100.00;99661.94;5051449;28;20137;-35
2022/02/16 06:19:58;;;;;;;2.10;1.90;;;;;;;8.18;100.00;99665.19;5052997;28;20081;-35
2022/02/16 06:22:23;;;;;;;1.73;1.60;;;;;;;8.18;100.00;99660.63;5053105;28;20029;-35
2022/02/16 06:24:49;;;;;;;1.87;1.70;;;;;;;8.18;100.00;99649.84;5053344;28;20389;-35
2022/02/16 06:27:14;;;;;;;2.47;2.20;;;;;;;8.17;100.00;99644.72;5053019;28;20029;-35
2022/02/16 06:29:39;;;;;;;1.83;1.67;;;;;;;8.24;100.00;99659.66;5052754;28;20407;-34
2022/02/16 06:32:05;;;;;;;1.90;1.70;;;;;;;8.23;100.00;99632.97;5053574;28;20029;-34
2022/02/16 06:34:30;;;;;;;1.65;1.55;;;;;;;8.11;100.00;99610.69;5053737;28;20029;-35
2022/02/16 06:36:55;;;;;;;1.97;1.77;;;;;;;8.24;100.00;99637.28;5053435;28;20052;-36
2022/02/16 06:39:21;;;;;;;1.73;1.50;;;;;;;8.27;100.00;99628.72;5052683;28;20025;-35
2022/02/16 06:41:46;;;;;;;1.80;1.70;;;;;;;8.26;100.00;99630.59;5052636;28;20028;-35
2022/02/16 06:44:11;;;;;;;3.00;1.60;;;;;;;8.18;100.00;99609.47;5053115;28;20021;-35
2022/02/16 06:46:37;;;;;;;1.60;1.40;;;;;;;8.29;100.00;99640.06;5052437;28;20037;-35
2022/02/16 06:49:02;;;;;;;1.57;1.47;;;;;;;8.31;100.00;99629.06;5053423;28;20262;-35
2022/02/16 06:51:27;;;;;;;2.30;1.47;;;;;;;8.27;100.00;99626.03;5052507;28;20029;-36
2022/02/16 06:53:55;;;;;;;1.60;1.50;;;;;;;8.35;100.00;99641.78;5052651;28;20113;-36
2022/02/16 06:56:22;;;;;;;1.70;1.60;;;;;;;8.34;100.00;99634.75;5052526;28;20040;-36
2022/02/16 06:58:48;;;;;;;2.20;1.80;;;;;;;8.36;100.00;99638.06;5052502;28;20447;-36
2022/02/16 07:01:13;;;;;;;1.80;1.70;;;;;;;8.32;100.00;99623.41;5053896;28;20029;-36
2022/02/16 07:03:39;;;;;;;2.30;2.10;;;;;;;8.41;100.00;99638.16;5052789;28;20032;-35
2022/02/16 07:06:04;;;;;;;2.10;1.90;;;;;;;8.40;100.00;99644.59;5051932;28;20461;-36
2022/02/16 07:08:29;;;;;;;2.03;1.83;;;;;;;8.43;100.00;99649.47;5052611;28;20068;-36
2022/02/16 07:10:55;;;;;;;2.57;2.37;;;;;;;8.41;100.00;99648.91;5052898;28;20108;-34
2022/02/16 07:13:20;;;;;;;2.20;2.00;;;;;;;8.46;100.00;99653.56;5050981;28;20448;-35
2022/02/16 07:15:45;;;;;;;2.83;2.60;;;;;;;8.45;100.00;99644.69;5052874;28;20419;-35
2022/02/16 07:18:11;;;;;;;2.30;2.07;;;;;;;8.46;100.00;99649.00;5052470;28;20029;-35
2022/02/16 07:20:36;;;;;;;2.77;2.53;;;;;;;8.49;100.00;99651.22;5052800;28;20275;-35
2022/02/16 07:23:03;;;;;;;2.40;2.20;;;;;;;8.48;100.00;99657.63;5052482;28;20032;-35
2022/02/16 07:25:28;;;;;;;2.28;1.95;;;;;;;8.46;100.00;99658.97;5053062;28;20067;-35
2022/02/16 07:27:53;;;;;;;2.50;2.30;;;;;;;8.39;100.00;99644.81;5052412;28;20457;-35
2022/02/16 07:30:19;;;;;;;3.50;2.77;;;;;;;8.57;100.00;99668.00;5056137;28;20044;-35
2022/02/16 07:32:44;;;;;;;2.60;2.40;;;;;;;8.58;100.00;99662.38;5056853;28;20318;-35
2022/02/16 07:35:12;;;;;;;2.80;2.43;;;;;;;8.60;100.00;99660.25;5056522;28;20032;-35
2022/02/16 07:37:38;;;;;;;2.83;2.28;;;;;;;8.62;100.00;99660.81;5055940;28;20037;-35
2022/02/16 07:40:05;;;;;;;2.95;2.15;;;;;;;8.58;100.00;99659.66;5056086;28;20021;-35
2022/02/16 07:42:31;;;;;;;2.60;2.40;;;;;;;8.59;100.00;99644.31;5055834;28;20086;-35
2022/02/16 07:44:56;;;;;;;2.55;2.35;;;;;;;8.66;100.00;99651.19;5056466;28;20491;-35
2022/02/16 07:47:23;;;;;;;2.42;2.22;;;;;;;8.61;100.00;99644.91;5055433;28;20036;-35
2022/02/16 07:49:48;;;;;;;;;;;;;;;8.69;100.00;99645.31;5055974;28;20036;-35
2022/02/16 07:52:14;;;;;;;2.30;2.10;;;;;;;8.73;100.00;99632.94;5056431;28;19908;-35
2022/02/16 07:54:39;;;;;;;3.28;2.50;;;;;;;8.70;100.00;99619.97;5056136;28;20033;-35
2022/02/16 07:57:04;;;;;;;3.30;2.23;;;;;;;8.77;100.00;99630.56;5055777;28;20049;-35
2022/02/16 07:59:30;;;;;;;2.57;2.37;;;;;;;8.80;100.00;99638.16;5055898;28;20044;-35
2022/02/16 08:01:58;;;;;;;3.80;2.30;;;;;;;8.65;100.00;99608.31;5055429;28;20036;-35
2022/02/16 08:04:25;;;;;;;3.20;2.33;;;;;;;8.85;100.00;99623.94;5054881;28;20466;-35
2022/02/16 08:06:51;;;;;;;3.13;2.60;;;;;;;8.89;100.00;99620.50;5055382;28;20493;-34
2022/02/16 08:09:17;;;;;;;4.03;2.78;;;;;;;8.90;100.00;99618.63;5055709;28;20043;-34
2022/02/16 08:11:43;;;;;;;2.85;2.60;;;;;;;8.94;100.00;99620.56;5055036;28;20108;-35
2022/02/16 08:14:09;;;;;;;3.03;2.65;;;;;;;8.97;100.00;99628.13;5055321;28;20148;-35
2022/02/16 08:16:36;;;;;;;3.10;2.80;;;;;;;9.00;100.00;99629.53;5055304;28;20036;-35
2022/02/16 08:19:03;;;;;;;2.78;2.58;;;;;;;8.92;100.00;99641.56;5055771;28;20118;-35
2022/02/16 08:21:28;;;;;;;2.72;2.53;;;;;;;9.00;100.00;99661.91;5055268;28;20353;-35
2022/02/16 08:23:54;;;;;;;3.13;2.80;;;;;;;9.00;100.00;99665.41;5055129;28;20107;-35
2022/02/16 08:26:19;;;;;;;2.90;2.70;;;;;;;9.02;100.00;99665.13;5055391;28;20035;-34
2022/02/16 08:28:45;;;;;;;2.90;2.70;;;;;;;9.11;100.00;99671.75;5055144;28;20105;-35
2022/02/16 08:31:10;;;;;;;2.92;2.72;;;;;;;9.08;100.00;99676.81;5055062;28;20036;-35
2022/02/16 08:33:36;;;;;;;3.55;3.25;;;;;;;9.15;100.00;99682.84;5054669;28;20029;-35
2022/02/16 08:36:01;;;;;;;4.05;3.20;;;;;;;9.10;100.00;99677.41;5054595;28;20028;-35
2022/02/16 08:38:27;;;;;;;3.97;3.58;;;;;;;9.19;100.00;99708.28;5055138;28;20029;-35
2022/02/16 08:40:52;;;;;;;3.67;3.27;;;;;;;9.19;100.00;99710.97;5054864;28;20100;-35
2022/02/16 08:43:17;;;;;;;4.17;3.67;;;;;;;9.21;100.00;99711.50;5054880;28;20059;-35
2022/02/16 08:45:42;;;;;;;4.40;3.97;;;;;;;9.15;100.00;99696.34;5054754;28;20032;-35
2022/02/16 08:48:08;;;;;;;4.40;4.00;;;;;;;9.26;100.00;99712.41;5054895;28;20029;-35
2022/02/16 08:50:34;;;;;;;4.78;4.28;;;;;;;9.26;100.00;99709.69;5055131;28;20032;-35
2022/02/16 08:53:00;;;;;;;4.88;4.47;;;;;;;9.32;100.00;99710.59;5055011;28;20082;-35
2022/02/16 08:55:25;;;;;;;4.32;3.92;;;;;;;9.26;100.00;99684.59;5054669;28;20384;-35
2022/02/16 08:57:51;;;;;;;4.80;4.40;;;;;;;9.36;100.00;99687.44;5055382;28;20053;-35
2022/02/16 09:00:17;;;;;;;5.40;4.90;;;;;;;9.40;100.00;99676.97;5053197;28;20048;-35
2022/02/16 09:02:42;;;;;;;5.40;4.90;;;;;;;9.42;100.00;99685.59;5054196;28;20033;-35
2022/02/16 09:05:08;;;;;;;4.60;4.20;;;;;;;9.43;100.00;99688.06;5054807;28;20333;-35
2022/02/16 09:07:33;;;;;;;4.60;4.20;;;;;;;9.44;100.00;99694.28;5054323;28;20029;-35
2022/02/16 09:10:01;;;;;;;4.87;4.43;;;;;;;9.46;100.00;99692.94;5054594;28;20024;-35
2022/02/16 09:12:28;;;;;;;4.63;4.22;;;;;;;9.48;100.00;99696.22;5054415;28;20275;-35
2022/02/16 09:14:53;;;;;;;;;;;;;;;9.51;100.00;99686.81;5054870;28;20032;-35
2022/02/16 09:17:19;;;;;;;4.55;4.15;;;;;;;9.51;100.00;99693.00;5053941;28;19916;-35
2022/02/16 09:19:44;;;;;;;5.15;4.65;;;;;;;9.54;100.00;99697.91;5054190;28;20036;-35
2022/02/16 09:22:12;;;;;;;4.35;3.95;;;;;;;9.57;100.00;99709.28;5054368;28;20104;-35
2022/02/16 09:24:38;;;;;;;4.57;4.18;;;;;;;9.59;100.00;99724.16;5053762;28;20035;-35
2022/02/16 09:27:03;;;;;;;;;;;;;;;9.63;100.00;99727.16;5054093;28;20029;-35
2022/02/16 09:29:29;;;;;;;4.97;4.47;;;;;;;9.63;100.00;99737.97;5053787;28;19962;-35
2022/02/16 09:31:54;;;;;;;4.70;4.30;;;;;;;9.66;100.00;99742.84;5054047;28;20449;-35
2022/02/16 09:34:21;;;;;;;3.97;3.67;;;;;;;9.66;100.00;99729.34;5054663;28;20021;-35
2022/02/16 09:36:46;;;;;;;4.57;4.18;;;;;;;9.68;100.00;99721.84;5053702;28;20527;-35
2022/02/16 09:39:12;;;;;;;4.85;4.18;;;;;;;9.68;100.00;99725.34;5053853;28;20036;-35
2022/02/16 09:41:37;;;;;;;4.45;4.05;;;;;;;9.68;100.00;99714.53;5053803;28;20029;-35
2022/02/16 09:44:03;;;;;;;4.93;4.53;;;;;;;9.69;100.00;99721.56;5054163;28;20029;-35
2022/02/16 09:46:29;;;;;;;5.53;5.03;;;;;;;9.71;100.00;99719.44;5053393;28;20428;-35
2022/02/16 09:48:56;;;;;;;5.50;5.00;;;;;;;9.73;100.00;99708.38;5053900;28;20028;-35
2022/02/16 09:51:21;;;;;;;5.82;5.22;;;;;;;9.69;100.00;99702.66;5053380;28;20150;-35
2022/02/16 09:53:47;;;;;;;5.80;5.30;;;;;;;9.70;100.00;99692.69;5053290;28;20116;-35
2022/02/16 09:56:12;;;;;;;5.90;5.30;;;;;;;9.80;100.00;99712.50;5053861;28;20021;-35
2022/02/16 09:58:38;;;;;;;6.93;6.30;;;;;;;9.79;100.00;99691.16;5054020;28;20291;-35
2022/02/16 10:01:05;;;;;;;6.32;5.72;;;;;;;9.89;100.00;99707.47;5053430;28;20032;-35
2022/02/16 10:03:31;;;;;;;7.00;6.40;;;;;;;9.97;100.00;99715.13;5053357;28;20021;-35
2022/02/16 10:05:56;;;;;;;7.72;6.97;;;;;;;9.84;100.00;99683.13;5053316;28;20033;-35
2022/02/16 10:08:45;;;;;;;7.17;6.47;;;;;;;10.05;100.00;99724.66;5053598;28;20473;-35
2022/02/16 10:11:12;;;;;;;7.13;6.43;;;;;;;10.09;100.00;99728.47;5053298;28;20059;-35
2022/02/16 10:13:38;;;;;;;6.78;6.18;;;;;;;10.14;100.00;99733.13;5053264;28;20029;-35
2022/02/16 10:16:04;;;;;;;6.47;5.93;;;;;;;10.17;100.00;99724.50;5053371;28;20078;-35
2022/02/16 10:18:30;;;;;;;6.80;6.15;;;;;;;10.21;100.00;99714.84;5052904;28;20060;-35
2022/02/16 10:21:09;;;;;;;6.30;5.77;;;;;;;10.25;100.00;99710.59;5053329;28;20049;-35
2022/02/16 10:23:46;;;;;;;6.60;5.95;;;;;;;10.28;100.00;99700.06;5053468;28;20033;-35
2022/02/16 10:26:12;;;;;;;;;;;;;;;10.32;100.00;99690.38;5052509;28;20033;-35
2022/02/16 10:28:43;;;;;;;5.78;5.28;;;;;;;10.36;100.00;99689.88;5052789;28;19912;-35
2022/02/16 10:31:10;;;;;;;6.15;5.55;;;;;;;10.35;100.00;99710.66;5053411;28;20109;-35
2022/02/16 10:33:39;;;;;;;7.07;5.90;;;;;;;10.36;100.00;99704.19;5052661;28;20500;-35
2022/02/16 10:36:23;;;;;;;5.97;5.38;;;;;;;10.42;100.00;99713.97;5053057;28;20067;-35
2022/02/16 10:39:12;;;;;;;6.63;6.03;;;;;;;10.40;100.00;99694.50;5053743;28;20021;-35
2022/02/16 10:41:47;;;;;;;6.50;5.82;;;;;;;10.47;100.00;99699.69;5052949;28;20044;-35
2022/02/16 10:44:19;;;;;;;8.30;6.28;;;;;;;10.53;100.00;99704.03;5052596;28;20025;-35
2022/02/16 10:46:45;;;;;;;6.53;5.93;;;;;;;10.57;100.00;99689.75;5052785;28;20032;-35
2022/02/16 10:49:18;;;;;;;7.72;6.28;;;;;;;10.53;100.00;99680.53;5052877;28;20029;-35
2022/02/16 10:51:45;;;;;;;8.77;7.28;;;;;;;10.62;100.00;99677.34;5052689;28;20032;-35
2022/02/16 10:54:19;;;;;;;8.45;7.40;;;;;;;10.64;100.00;99667.09;5053074;28;20124;-35
2022/02/16 10:56:49;;;;;;;8.15;7.32;;;;;;;10.65;100.00;99671.44;5052905;28;20079;-35
2022/02/16 10:59:15;;;;;;;10.23;9.13;;;;;;;10.65;100.00;99682.25;5053362;28;20033;-35
2022/02/16 11:01:41;;;;;;;10.00;8.82;;;;;;;10.69;100.00;99688.78;5053143;28;20466;-35
2022/02/16 11:04:11;;;;;;;10.43;9.43;;;;;;;10.63;100.00;99678.97;5054859;28;20050;-35
2022/02/16 11:06:43;;;;;;;11.25;9.60;;;;;;;10.68;100.00;99695.22;5057463;28;20061;-35
2022/02/16 11:09:16;;;;;;;15.35;11.35;;;;;;;10.72;100.00;99693.66;5057449;28;20502;-35
2022/02/16 11:11:41;;;;;;;13.35;11.32;;;;;;;10.61;100.00;99668.44;5057032;28;20035;-35
2022/02/16 11:14:08;;;;;;;13.87;12.57;;;;;;;10.71;100.00;99670.38;5056577;28;20104;-35
2022/02/16 11:16:34;;;;;;;14.60;12.60;;;;;;;10.74;100.00;99686.09;5056914;28;20436;-35
2022/02/16 11:19:01;;;;;;;16.15;14.48;;;;;;;10.73;100.00;99669.03;5056657;28;20025;-35
2022/02/16 11:21:31;;;;;;;15.57;13.88;;;;;;;10.74;100.00;99672.59;5056737;28;20449;-35
2022/02/16 11:23:58;;;;;;;14.75;13.30;;;;;;;10.77;100.00;99674.75;5056407;28;20028;-35